This is the latest recevied weather packets stored in our database for station/object K6CED. If no packets are shown the sender has not sent any weather packets the latest 10 day(s).
| Time | Temp. | Humidity | Pressure | Rain* | Wind** | Luminosity | Snow |
|---|---|---|---|---|---|---|---|
| 1788335926 | 14.44° C | 83% | 1019.2 hPa | 0 mm | - | 0 W/m² | - |
| 1788335623 | 15° C | 83% | 1019 hPa | 0 mm | - | 0 W/m² | - |
| 1788335317 | 15° C | 83% | 1018.9 hPa | 0 mm | - | 0 W/m² | - |
| 1788335013 | 15° C | 82% | 1019 hPa | 0 mm | - | 0 W/m² | - |
| 1788334708 | 15° C | 82% | 1019.1 hPa | 0 mm | - | 0 W/m² | - |
| 1788334404 | 15° C | 84% | 1019 hPa | 0 mm | - | 0 W/m² | - |
| 1788334100 | 15° C | 82% | 1018.8 hPa | 0 mm | - | 0 W/m² | - |
| 1788333795 | 15° C | 82% | 1018.9 hPa | 0 mm | - | 0 W/m² | - |
| 1788333492 | 15.56° C | 83% | 1018.6 hPa | 0 mm | - | 0 W/m² | - |
| 1788333186 | 16.11° C | 86% | 1018.6 hPa | 0 mm | - | 0 W/m² | - |
| 1788332883 | 15.56° C | 84% | 1018.5 hPa | 0 mm | - | 0 W/m² | - |
| 1788332582 | 16.11° C | 84% | 1018.5 hPa | 0 mm | - | 0 W/m² | - |
| 1788332281 | 16.67° C | 88% | 1018.5 hPa | 0 mm | - | 0 W/m² | - |
| 1788331976 | 16.67° C | 86% | 1018.5 hPa | 0 mm | - | 0 W/m² | - |
| 1788331672 | 16.67° C | 85% | 1018.7 hPa | 0 mm | - | 0 W/m² | - |
| 1788331368 | 16.67° C | 84% | 1018.4 hPa | 0 mm | - | 0 W/m² | - |
| 1788331063 | 16.67° C | 86% | 1018.4 hPa | 0 mm | - | 0 W/m² | - |
| 1788330758 | 16.67° C | 85% | 1018.4 hPa | 0 mm | - | 0 W/m² | - |
| 1788330457 | 17.22° C | 85% | 1018.6 hPa | 0 mm | - | 0 W/m² | - |
| 1788330152 | 17.78° C | 85% | 1018.6 hPa | 0 mm | - | 0 W/m² | - |
| 1788329851 | 17.78° C | 85% | 1018.5 hPa | 0 mm | - | 0 W/m² | - |
| 1788329547 | 17.78° C | 85% | 1018.6 hPa | 0 mm | - | 0 W/m² | - |
| 1788329244 | 17.78° C | 84% | 1018.3 hPa | 0 mm | - | 0 W/m² | - |
| 1788328939 | 17.78° C | 83% | 1018.4 hPa | 0 mm | - | 0 W/m² | - |
| 1788328635 | 17.78° C | 82% | 1018.5 hPa | 0 mm | - | 0 W/m² | - |
* Rain latest hour (hover to see other rain measurements)
** Current wind speed in m/s (hover to see current wind gust speed)